createdAt,value
2024-05-09T00:02:58.358Z,8.88
2024-05-09T00:06:01.908Z,9.11
2024-05-09T00:09:06.043Z,9.14
2024-05-09T00:12:10.301Z,9.22
2024-05-09T00:15:14.795Z,9.36
2024-05-09T00:18:18.984Z,9.62
2024-05-09T00:21:22.996Z,9.83
2024-05-09T00:24:27.205Z,10.05
2024-05-09T00:27:31.005Z,10.25
2024-05-09T00:30:37.008Z,10.42
2024-05-09T00:33:41.936Z,10.44
2024-05-09T00:36:48.624Z,10.50
2024-05-09T00:39:52.916Z,10.56
2024-05-09T00:42:56.846Z,10.60
2024-05-09T00:46:02.549Z,10.79
2024-05-09T00:49:07.149Z,10.89
2024-05-09T00:52:11.475Z,11.17
2024-05-09T00:55:17.169Z,11.42
2024-05-09T00:58:24.075Z,11.62
2024-05-09T01:01:27.847Z,11.66
2024-05-09T01:04:32.024Z,11.94
2024-05-09T01:07:35.641Z,12.07
2024-05-09T01:10:42.561Z,12.17
2024-05-09T01:14:25.435Z,12.45
2024-05-09T01:17:28.947Z,12.85
2024-05-09T01:20:40.937Z,13.04
2024-05-09T01:23:47.248Z,13.26
2024-05-09T01:26:51.731Z,13.57
2024-05-09T01:29:55.643Z,13.76
2024-05-09T01:32:59.289Z,14.22
2024-05-09T01:36:03.442Z,14.50
2024-05-09T01:39:07.446Z,14.72
2024-05-09T01:42:11.460Z,14.67
2024-05-09T01:45:16.015Z,14.57
2024-05-09T01:48:19.496Z,14.69
2024-05-09T01:51:23.612Z,14.89
2024-05-09T01:54:27.126Z,15.27
2024-05-09T01:57:30.963Z,15.65
2024-05-09T02:00:39.847Z,15.94
2024-05-09T02:03:48.159Z,16.01
2024-05-09T02:06:52.578Z,16.46
2024-05-09T02:09:57.130Z,16.83
2024-05-09T02:13:01.076Z,17.05
2024-05-09T02:16:04.941Z,17.22
2024-05-09T02:19:08.892Z,17.53
2024-05-09T02:22:12.784Z,17.36
2024-05-09T02:25:15.946Z,17.36
2024-05-09T02:28:21.746Z,17.63
2024-05-09T02:31:26.253Z,17.80
2024-05-09T02:34:30.375Z,18.00
2024-05-09T02:37:37.057Z,18.12
2024-05-09T02:40:40.755Z,18.04
2024-05-09T02:43:44.558Z,18.38
2024-05-09T02:46:47.695Z,18.56
2024-05-09T02:49:51.383Z,18.66
2024-05-09T02:52:54.599Z,18.76
2024-05-09T02:55:58.321Z,18.76
2024-05-09T02:59:01.595Z,19.04
2024-05-09T03:02:06.149Z,19.21
2024-05-09T03:05:10.240Z,19.59
2024-05-09T03:08:14.731Z,19.66
2024-05-09T03:11:25.734Z,20.27
2024-05-09T03:14:32.903Z,20.34
2024-05-09T03:17:36.730Z,20.52
2024-05-09T03:20:50.229Z,20.65
2024-05-09T03:23:53.535Z,20.56
2024-05-09T03:26:57.530Z,20.16
2024-05-09T03:30:01.506Z,20.17
2024-05-09T03:33:05.997Z,20.09
2024-05-09T03:36:11.261Z,19.77
2024-05-09T03:39:16.168Z,19.90
2024-05-09T03:42:20.249Z,19.70
2024-05-09T03:45:48.659Z,19.42
2024-05-09T03:48:51.898Z,19.22
2024-05-09T03:52:12.701Z,19.27
2024-05-09T03:55:18.835Z,19.25
2024-05-09T03:58:22.559Z,19.58
2024-05-09T04:01:27.154Z,19.34
2024-05-09T04:04:31.290Z,19.51
2024-05-09T04:07:35.578Z,19.93
2024-05-09T04:10:41.773Z,19.96
2024-05-09T04:13:48.783Z,20.17
2024-05-09T04:16:52.479Z,20.13
2024-05-09T04:19:59.237Z,20.34
2024-05-09T04:23:02.743Z,20.76
2024-05-09T04:26:09.273Z,20.93
2024-05-09T04:29:12.677Z,21.59
2024-05-09T04:32:16.589Z,21.99
2024-05-09T04:35:23.022Z,22.46
2024-05-09T04:38:27.042Z,22.91
2024-05-09T04:41:31.685Z,23.22
2024-05-09T04:44:35.205Z,23.60
2024-05-09T04:47:38.496Z,23.49
2024-05-09T04:50:42.920Z,23.11
2024-05-09T04:53:47.304Z,22.53
2024-05-09T04:56:53.695Z,22.48
2024-05-09T04:59:58.614Z,22.81
2024-05-09T05:03:06.817Z,22.47
2024-05-09T05:06:11.833Z,22.23
2024-05-09T05:09:15.329Z,21.78
2024-05-09T05:12:40.639Z,21.66
2024-05-09T05:15:44.952Z,21.78
2024-05-09T05:18:49.407Z,21.88
2024-05-09T05:21:52.723Z,21.66
2024-05-09T05:24:56.573Z,21.48
2024-05-09T05:27:59.751Z,21.50
2024-05-09T05:31:03.676Z,21.77
2024-05-09T05:34:07.338Z,22.12
2024-05-09T05:37:12.179Z,22.43
2024-05-09T05:40:25.227Z,22.51
2024-05-09T05:43:36.528Z,22.63
2024-05-09T05:46:40.926Z,22.98
2024-05-09T05:49:45.221Z,22.81
2024-05-09T05:52:49.218Z,22.81
2024-05-09T05:55:57.597Z,23.11
2024-05-09T05:59:01.696Z,23.02
2024-05-09T06:02:06.049Z,23.12
2024-05-09T06:05:10.733Z,23.34
2024-05-09T06:08:14.876Z,23.36
2024-05-09T06:11:19.051Z,23.11
2024-05-09T06:14:23.529Z,23.36
2024-05-09T06:17:28.300Z,23.71
2024-05-09T06:20:36.440Z,24.02
2024-05-09T06:23:48.603Z,24.29
2024-05-09T06:26:52.302Z,24.02
2024-05-09T06:29:55.580Z,24.11
2024-05-09T06:33:00.162Z,24.18
2024-05-09T06:36:04.201Z,24.08
2024-05-09T06:39:07.762Z,24.69
2024-05-09T06:42:13.136Z,25.14
2024-05-09T06:45:17.421Z,25.49
2024-05-09T06:48:22.733Z,25.87
2024-05-09T06:51:26.648Z,26.37
2024-05-09T06:54:30.862Z,27.34
2024-05-09T06:57:34.747Z,28.12
2024-05-09T07:00:41.082Z,28.69
2024-05-09T07:03:46.801Z,29.44
2024-05-09T07:06:49.952Z,28.65
2024-05-09T07:09:53.356Z,26.99
2024-05-09T07:12:56.522Z,27.14
2024-05-09T07:16:00.871Z,28.48
2024-05-09T07:19:05.123Z,29.50
2024-05-09T07:22:09.437Z,30.11
2024-05-09T07:25:12.906Z,30.46
2024-05-09T07:28:19.204Z,29.77
2024-05-09T07:31:24.051Z,29.46
2024-05-09T07:34:27.966Z,30.49
2024-05-09T07:37:31.457Z,31.49
2024-05-09T07:40:36.911Z,32.03
2024-05-09T07:43:40.761Z,32.89
2024-05-09T07:47:48.197Z,32.59
2024-05-09T07:53:37.842Z,30.43
2024-05-09T07:56:40.798Z,30.05
2024-05-09T07:59:44.837Z,29.71
2024-05-09T08:02:48.952Z,29.10
2024-05-09T08:05:52.865Z,28.54
2024-05-09T08:08:59.160Z,27.08
2024-05-09T08:12:04.364Z,26.14
2024-05-09T08:15:08.783Z,25.81
2024-05-09T08:18:12.718Z,25.81
2024-05-09T08:21:17.245Z,25.76
2024-05-09T08:24:21.057Z,25.58
2024-05-09T08:27:27.708Z,25.28
2024-05-09T08:30:36.763Z,25.36
2024-05-09T08:33:48.077Z,24.98
2024-05-09T08:36:53.045Z,24.66
2024-05-09T08:39:56.887Z,24.23
2024-05-09T08:43:02.448Z,24.02
2024-05-09T08:46:08.202Z,24.32
2024-05-09T08:49:13.100Z,24.88
2024-05-09T08:52:16.861Z,25.58
2024-05-09T08:55:21.324Z,25.67
2024-05-09T08:58:26.924Z,26.10
2024-05-09T09:01:33.019Z,27.55
2024-05-09T09:04:41.241Z,28.82
2024-05-09T09:07:49.241Z,29.75
2024-05-09T09:10:55.742Z,30.50
2024-05-09T09:13:59.632Z,29.80
2024-05-09T09:17:14.172Z,29.65
2024-05-09T09:20:23.324Z,29.78
2024-05-09T09:23:34.290Z,30.23
2024-05-09T09:26:37.477Z,30.18
2024-05-09T09:29:41.590Z,28.58
2024-05-09T09:32:45.995Z,27.57
2024-05-09T09:35:49.499Z,28.50
2024-05-09T09:38:54.374Z,28.95
2024-05-09T09:42:02.718Z,29.25
2024-05-09T09:45:07.973Z,29.54
2024-05-09T09:48:12.779Z,29.81
2024-05-09T09:51:17.363Z,30.63
2024-05-09T09:54:21.742Z,31.10
2024-05-09T09:57:28.741Z,30.53
2024-05-09T10:00:34.741Z,28.51
2024-05-09T10:03:39.257Z,27.37
2024-05-09T10:06:54.119Z,26.79
2024-05-09T10:09:58.899Z,25.90
2024-05-09T10:13:09.200Z,24.81
2024-05-09T10:16:13.449Z,24.55
2024-05-09T10:19:26.983Z,24.12
2024-05-09T10:22:31.735Z,24.12
2024-05-09T10:25:35.307Z,24.67
2024-05-09T10:28:46.097Z,25.07
2024-05-09T10:31:49.736Z,25.35
2024-05-09T10:35:14.123Z,25.17
2024-05-09T10:38:18.992Z,24.71
2024-05-09T10:41:24.777Z,24.19
2024-05-09T10:44:28.294Z,23.46
2024-05-09T10:47:32.731Z,22.72
2024-05-09T10:50:36.827Z,22.19
2024-05-09T10:53:44.880Z,21.74
2024-05-09T10:56:57.486Z,21.40
2024-05-09T11:00:01.177Z,21.17
2024-05-09T11:03:04.556Z,20.86
2024-05-09T11:06:10.737Z,20.73
2024-05-09T11:09:15.372Z,20.49
2024-05-09T11:12:20.616Z,20.31
2024-05-09T11:15:26.497Z,20.06
2024-05-09T11:18:36.179Z,19.77
2024-05-09T11:21:42.150Z,19.61
2024-05-09T11:24:46.325Z,19.54
2024-05-09T11:27:50.718Z,19.44
2024-05-09T11:31:05.122Z,19.36
2024-05-09T11:34:08.354Z,19.22
2024-05-09T11:37:13.903Z,19.11
2024-05-09T11:40:25.245Z,19.07
2024-05-09T11:43:32.670Z,18.97
2024-05-09T11:46:36.880Z,18.99
2024-05-09T11:49:40.934Z,18.93
2024-05-09T11:52:45.275Z,18.84
2024-05-09T11:55:48.537Z,18.91
2024-05-09T11:58:52.555Z,18.91
2024-05-09T12:01:56.160Z,18.90
2024-05-09T12:05:00.656Z,18.81
2024-05-09T12:08:04.810Z,18.80
2024-05-09T12:11:09.138Z,18.81
2024-05-09T12:14:13.358Z,18.77
2024-05-09T12:17:17.528Z,18.70
2024-05-09T12:20:28.864Z,18.62
2024-05-09T12:23:39.665Z,18.55
2024-05-09T12:26:43.619Z,18.45
2024-05-09T12:29:48.693Z,18.31
2024-05-09T12:32:53.264Z,18.28
2024-05-09T12:35:57.200Z,18.29
2024-05-09T12:39:01.792Z,18.34
2024-05-09T12:42:05.623Z,18.38
2024-05-09T12:45:09.908Z,18.39
2024-05-09T12:48:13.875Z,18.34
2024-05-09T12:51:18.157Z,18.32
2024-05-09T12:54:21.707Z,18.28
2024-05-09T12:57:26.808Z,18.18
2024-05-09T13:00:33.823Z,18.11
2024-05-09T13:03:37.851Z,18.00
2024-05-09T13:06:42.426Z,17.87
2024-05-09T13:09:46.467Z,17.74
2024-05-09T13:12:50.788Z,17.67
2024-05-09T13:15:54.708Z,17.70
2024-05-09T13:18:59.199Z,17.67
2024-05-09T13:22:04.317Z,17.71
2024-05-09T13:25:08.836Z,17.67
2024-05-09T13:28:12.391Z,17.53
2024-05-09T13:31:16.755Z,17.56
2024-05-09T13:34:20.493Z,17.54
2024-05-09T13:37:24.744Z,17.47
2024-05-09T13:40:33.612Z,17.49
2024-05-09T13:43:40.332Z,17.46
2024-05-09T13:46:44.314Z,17.42
2024-05-09T13:49:49.108Z,17.42
2024-05-09T13:52:53.013Z,17.38
2024-05-09T13:55:56.889Z,17.23
2024-05-09T13:59:00.416Z,16.98
2024-05-09T14:02:04.736Z,16.81
2024-05-09T14:05:08.601Z,16.45
2024-05-09T14:08:12.793Z,16.39
2024-05-09T14:11:16.622Z,16.43
2024-05-09T14:14:20.783Z,16.42
2024-05-09T14:17:25.073Z,16.43
2024-05-09T14:20:31.597Z,16.45
2024-05-09T14:23:35.927Z,16.46
2024-05-09T14:26:39.268Z,16.49
2024-05-09T14:29:44.037Z,16.39
2024-05-09T14:32:49.698Z,16.26
2024-05-09T14:35:57.620Z,16.20
2024-05-09T14:39:00.873Z,16.18
2024-05-09T14:42:05.506Z,16.08
2024-05-09T14:45:09.578Z,15.98
2024-05-09T14:48:15.684Z,15.95
2024-05-09T14:51:21.285Z,15.97
2024-05-09T14:54:24.441Z,16.04
2024-05-09T14:57:28.018Z,16.12
2024-05-09T15:00:35.878Z,16.12
2024-05-09T15:03:40.502Z,16.09
2024-05-09T15:06:44.527Z,16.06
2024-05-09T15:09:48.543Z,15.88
2024-05-09T15:12:53.065Z,15.92
2024-05-09T15:15:56.986Z,15.84
2024-05-09T15:19:00.720Z,15.70
2024-05-09T15:22:04.010Z,15.47
2024-05-09T15:25:08.308Z,15.32
2024-05-09T15:28:11.744Z,15.20
2024-05-09T15:31:16.027Z,15.22
2024-05-09T15:34:19.634Z,15.19
2024-05-09T15:37:24.197Z,15.22
2024-05-09T15:40:35.935Z,15.29
2024-05-09T15:43:43.591Z,15.20
2024-05-09T15:46:47.144Z,15.13
2024-05-09T15:49:51.314Z,15.18
2024-05-09T15:52:57.727Z,15.15
2024-05-09T15:56:00.826Z,15.12
2024-05-09T15:59:04.062Z,15.03
2024-05-09T16:02:08.512Z,15.02
2024-05-09T16:05:12.072Z,14.92
2024-05-09T16:08:16.453Z,14.82
2024-05-09T16:11:21.446Z,14.82
2024-05-09T16:14:25.794Z,14.69
2024-05-09T16:17:29.908Z,14.56
2024-05-09T16:20:39.295Z,14.52
2024-05-09T16:23:45.444Z,14.47
2024-05-09T16:26:49.323Z,14.31
2024-05-09T16:29:52.572Z,14.10
2024-05-09T16:32:57.009Z,14.02
2024-05-09T16:36:01.058Z,13.86
2024-05-09T16:39:05.423Z,13.64
2024-05-09T16:42:09.406Z,13.53
2024-05-09T16:45:13.574Z,13.44
2024-05-09T16:48:17.942Z,13.28
2024-05-09T16:51:22.207Z,13.19
2024-05-09T16:54:25.352Z,13.11
2024-05-09T16:57:29.292Z,13.03
2024-05-09T17:00:40.316Z,12.99
2024-05-09T17:03:47.044Z,12.96
2024-05-09T17:06:50.385Z,12.92
2024-05-09T17:09:54.350Z,12.93
2024-05-09T17:12:57.903Z,12.90
2024-05-09T17:16:01.947Z,12.81
2024-05-09T17:19:06.030Z,12.78
2024-05-09T17:22:09.944Z,12.75
2024-05-09T17:25:13.946Z,12.61
2024-05-09T17:28:18.164Z,12.51
2024-05-09T17:31:22.860Z,12.35
2024-05-09T17:34:26.749Z,12.24
2024-05-09T17:37:31.866Z,12.18
2024-05-09T17:40:39.754Z,12.07
2024-05-09T17:43:43.370Z,12.10
2024-05-09T17:46:47.256Z,12.10
2024-05-09T17:49:51.077Z,11.94
2024-05-09T17:52:55.033Z,11.86
2024-05-09T17:56:00.955Z,11.70
2024-05-09T17:59:06.470Z,11.58
2024-05-09T18:02:17.731Z,11.49
2024-05-09T18:05:25.027Z,11.27
2024-05-09T18:08:31.351Z,11.07
2024-05-09T18:11:38.206Z,10.89
2024-05-09T18:14:42.078Z,10.66
2024-05-09T18:17:46.367Z,10.57
2024-05-09T18:20:50.413Z,10.44
2024-05-09T18:23:56.747Z,10.22
2024-05-09T18:27:01.750Z,10.15
2024-05-09T18:30:17.292Z,10.04
2024-05-09T18:33:25.228Z,9.90
2024-05-09T18:36:28.694Z,9.77
2024-05-09T18:39:32.667Z,9.72
2024-05-09T18:42:36.184Z,9.70
2024-05-09T18:45:39.883Z,9.59
2024-05-09T18:48:44.211Z,9.49
2024-05-09T18:51:48.141Z,9.39
2024-05-09T18:54:52.436Z,9.19
2024-05-09T18:57:56.417Z,9.28
2024-05-09T19:01:02.431Z,9.18
2024-05-09T19:04:06.072Z,9.07
2024-05-09T19:07:09.984Z,8.96
2024-05-09T19:10:22.246Z,8.85
2024-05-09T19:13:29.496Z,8.81
2024-05-09T19:16:36.973Z,8.78
2024-05-09T19:19:40.577Z,8.78
2024-05-09T19:22:44.567Z,8.71
2024-05-09T19:25:48.633Z,8.54
2024-05-09T19:28:55.275Z,8.53
2024-05-09T19:31:59.063Z,8.49
2024-05-09T19:35:03.087Z,8.43
2024-05-09T19:38:06.838Z,8.46
2024-05-09T19:41:10.673Z,8.35
2024-05-09T19:44:14.435Z,8.26
2024-05-09T19:47:18.425Z,8.15
2024-05-09T19:50:30.225Z,8.11
2024-05-09T19:53:39.514Z,8.06
2024-05-09T19:56:45.845Z,7.97
2024-05-09T19:59:49.753Z,7.94
2024-05-09T20:02:53.897Z,7.97
2024-05-09T20:05:58.807Z,7.91
2024-05-09T20:09:02.780Z,7.64
2024-05-09T20:12:06.895Z,7.67
2024-05-09T20:15:10.809Z,7.59
2024-05-09T20:18:14.894Z,7.59
2024-05-09T20:21:18.489Z,7.60
2024-05-09T20:24:22.485Z,7.40
2024-05-09T20:27:26.317Z,7.30
2024-05-09T20:30:32.880Z,7.18
2024-05-09T20:33:38.984Z,7.20
2024-05-09T20:36:42.335Z,7.15
2024-05-09T20:39:45.695Z,7.14
2024-05-09T20:42:48.890Z,7.09
2024-05-09T20:45:53.204Z,7.11
2024-05-09T20:48:57.022Z,7.02
2024-05-09T20:52:01.274Z,6.99
2024-05-09T20:55:05.395Z,7.02
2024-05-09T20:58:10.228Z,7.01
2024-05-09T21:01:14.352Z,6.98
2024-05-09T21:04:18.153Z,6.95
2024-05-09T21:07:22.331Z,6.94
2024-05-09T21:10:32.083Z,7.02
2024-05-09T21:13:37.809Z,7.15
2024-05-09T21:16:42.248Z,7.26
2024-05-09T21:19:45.828Z,7.23
2024-05-09T21:22:49.962Z,7.08
2024-05-09T21:25:53.717Z,7.02
2024-05-09T21:28:57.910Z,6.92
2024-05-09T21:32:01.826Z,6.77
2024-05-09T21:35:06.094Z,6.42
2024-05-09T21:38:09.377Z,6.09
2024-05-09T21:41:13.327Z,5.78
2024-05-09T21:44:17.125Z,5.58
2024-05-09T21:47:21.650Z,5.43
2024-05-09T21:50:32.401Z,5.39
2024-05-09T21:53:43.227Z,5.25
2024-05-09T21:56:47.191Z,5.25
2024-05-09T21:59:54.163Z,5.30
2024-05-09T22:02:58.506Z,5.35
2024-05-09T22:06:01.928Z,5.20
2024-05-09T22:09:06.384Z,5.01
2024-05-09T22:12:09.885Z,4.77
2024-05-09T22:15:14.661Z,4.65
2024-05-09T22:18:18.196Z,4.56
2024-05-09T22:21:21.927Z,4.52
2024-05-09T22:24:25.719Z,4.30
2024-05-09T22:27:30.058Z,4.28
2024-05-09T22:30:39.133Z,4.15
2024-05-09T22:33:52.508Z,4.06
2024-05-09T22:36:55.723Z,3.84
2024-05-09T22:39:59.639Z,3.84
2024-05-09T22:43:05.082Z,4.01
2024-05-09T22:46:09.382Z,4.01
2024-05-09T22:49:12.689Z,4.06
2024-05-09T22:52:15.937Z,4.23
2024-05-09T22:55:19.087Z,4.12
2024-05-09T22:58:23.909Z,4.10
2024-05-09T23:01:28.493Z,3.96
2024-05-09T23:04:32.057Z,4.09
2024-05-09T23:07:35.973Z,4.22
2024-05-09T23:10:39.584Z,4.22
2024-05-09T23:13:43.739Z,4.08
2024-05-09T23:16:47.253Z,4.10
2024-05-09T23:19:51.417Z,3.99
2024-05-09T23:22:56.425Z,4.08
2024-05-09T23:26:00.469Z,3.87
2024-05-09T23:29:04.418Z,3.61
2024-05-09T23:32:10.065Z,3.54
2024-05-09T23:35:14.341Z,3.58
2024-05-09T23:38:18.417Z,3.56
2024-05-09T23:41:23.379Z,3.63
2024-05-09T23:44:27.013Z,3.60
2024-05-09T23:47:30.294Z,3.36
2024-05-09T23:50:37.289Z,3.30
2024-05-09T23:57:22.363Z,3.24
